St Lawrence Post Office, Australia
Current Conditions -  °F | °C
As of 1:00 PM on Saturday 25 Oct 2014 (Local Time) from YBMK Reporting Station
Scattered Clouds Scattered Clouds  
Wind Chill: 81°   Ceiling: Unl
Heat Index: 82°   Visibility: 6mi
Dew Point: 64°   Wind: 13mph
Humidity: 58%   Direction: 110°ESE
Pressure: 30.06"   Gusts: NA
Location:  22.33°S, 149.53°E
Report Text: YBMK 250300Z AUTO 11011KT 9999 // SCT027 27/18 Q1018
Loading
Personal Weather Stations






























Interactive Weather Map
Tropical Storm Tracking
New forecast layout! Learn more

10-Day Weather Forecast

Advertisements
Track Severe Weather on mobile